Time;durP1;ratioP1;P1;durP2;ratioP2;P2;SDS_P1;SDS_P2;PMS_P1;PMS_P2;Temp;Humidity;BMP_temperature;BMP_pressure;BME280_temperature;BME280_humidity;BME280_pressure;Samples;Min_cycle;Max_cycle;Signal;HPM_P1;HPM_P2
2023/12/07 00:02:05;;;;;;;6.55;5.93;;;15.90;74.30;;;;;;4185474;28;20052;-50
2023/12/07 00:04:48;;;;;;;6.65;5.75;;;15.80;74.00;;;;;;4170521;28;20056;-49
2023/12/07 00:07:29;;;;;;;6.57;5.97;;;15.90;74.30;;;;;;4166642;28;20545;-50
2023/12/07 00:10:10;;;;;;;6.65;6.03;;;15.90;74.40;;;;;;4170366;28;20543;-49
2023/12/07 00:12:51;;;;;;;6.95;6.35;;;15.90;74.30;;;;;;4174028;28;20097;-50
2023/12/07 00:15:31;;;;;;;7.83;5.97;;;15.90;74.00;;;;;;4187273;28;20056;-50
2023/12/07 00:18:13;;;;;;;7.90;6.25;;;15.80;74.00;;;;;;4180632;28;20109;-50
2023/12/07 00:20:55;;;;;;;7.00;6.28;;;15.80;74.20;;;;;;4176824;28;20493;-53
2023/12/07 00:23:36;;;;;;;5.93;5.43;;;15.80;74.30;;;;;;4186895;28;20109;-47
2023/12/07 00:26:17;;;;;;;6.28;5.68;;;15.80;74.50;;;;;;4186702;28;20063;-51
2023/12/07 00:28:58;;;;;;;6.22;5.65;;;15.80;74.60;;;;;;4186227;28;20056;-49
2023/12/07 00:31:39;;;;;;;6.22;5.82;;;15.90;74.40;;;;;;4172168;28;20618;-50
2023/12/07 00:34:20;;;;;;;8.35;6.70;;;15.90;74.20;;;;;;4186092;28;20133;-49
2023/12/07 00:37:03;;;;;;;7.55;6.10;;;15.80;74.10;;;;;;4186069;28;20060;-50
2023/12/07 00:39:45;;;;;;;8.30;5.82;;;15.80;74.40;;;;;;4170010;28;20059;-50
2023/12/07 00:42:25;;;;;;;6.55;5.70;;;15.90;74.50;;;;;;4165038;28;20053;-53
2023/12/07 00:45:07;;;;;;;8.40;6.25;;;15.90;74.20;;;;;;4173189;28;20048;-49
2023/12/07 00:47:48;;;;;;;6.60;6.00;;;16.00;73.90;;;;;;4170019;28;20048;-50
2023/12/07 00:50:29;;;;;;;7.00;6.40;;;16.00;73.60;;;;;;4170215;28;20044;-49
2023/12/07 00:53:12;;;;;;;5.85;5.35;;;16.00;73.50;;;;;;4166934;28;20412;-49
2023/12/07 00:55:53;;;;;;;8.60;6.07;;;16.00;73.60;;;;;;4186146;28;20051;-54
2023/12/07 00:58:34;;;;;;;8.70;6.22;;;16.00;73.50;;;;;;4175460;28;20056;-53
2023/12/07 01:01:15;;;;;;;12.02;5.75;;;16.00;73.70;;;;;;4183975;28;20063;-50
2023/12/07 01:03:56;;;;;;;6.97;5.15;;;15.90;73.80;;;;;;4197411;28;20197;-54
2023/12/07 01:06:37;;;;;;;5.80;5.30;;;15.90;74.10;;;;;;4191060;28;20056;-53
2023/12/07 01:09:19;;;;;;;;;;;15.90;74.20;;;;;;4184834;28;20072;-52
2023/12/07 01:12:01;;;;;;;6.15;5.60;;;16.00;74.10;;;;;;4186983;28;19974;-48
2023/12/07 01:14:42;;;;;;;6.50;5.78;;;16.00;74.10;;;;;;4189421;28;20403;-49
2023/12/07 01:17:23;;;;;;;6.15;5.65;;;16.00;73.80;;;;;;4186503;28;20074;-47
2023/12/07 01:20:11;;;;;;;6.10;5.60;;;15.90;73.70;;;;;;4189097;28;20187;-53
2023/12/07 01:22:53;;;;;;;6.85;5.75;;;15.80;73.90;;;;;;4189991;28;20094;-51
2023/12/07 01:25:35;;;;;;;7.10;5.70;;;15.90;74.20;;;;;;4203172;28;20154;-52
2023/12/07 01:28:16;;;;;;;8.25;6.18;;;15.90;73.90;;;;;;4189294;28;20082;-50
2023/12/07 01:30:57;;;;;;;6.22;5.63;;;15.90;73.90;;;;;;4189319;28;20097;-52
2023/12/07 01:33:38;;;;;;;7.03;6.32;;;15.90;73.90;;;;;;4189244;28;20063;-51
2023/12/07 01:36:20;;;;;;;5.90;5.30;;;15.90;74.20;;;;;;4187871;28;20131;-46
2023/12/07 01:39:01;;;;;;;6.32;5.82;;;15.90;75.20;;;;;;4189332;28;20056;-45
2023/12/07 01:41:43;;;;;;;6.55;5.63;;;16.00;73.90;;;;;;4189348;28;20537;-46
2023/12/07 01:44:25;;;;;;;5.68;5.18;;;16.00;73.50;;;;;;4188316;28;20048;-48
2023/12/07 01:47:07;;;;;;;5.93;5.32;;;16.10;73.30;;;;;;4189008;28;20059;-46
2023/12/07 01:49:48;;;;;;;7.88;6.07;;;16.20;73.20;;;;;;4189119;28;20051;-50
2023/12/07 01:52:31;;;;;;;6.38;5.68;;;16.20;72.90;;;;;;4173532;28;20079;-48
2023/12/07 01:55:13;;;;;;;6.28;5.68;;;16.20;72.70;;;;;;4188889;28;20166;-47
2023/12/07 01:57:56;;;;;;;6.63;4.95;;;16.30;72.60;;;;;;4189023;28;20047;-48
2023/12/07 02:00:37;;;;;;;6.32;5.72;;;16.30;72.50;;;;;;4189067;28;20121;-49
2023/12/07 02:03:18;;;;;;;6.68;5.95;;;16.30;72.50;;;;;;4179896;28;20399;-50
2023/12/07 02:06:00;;;;;;;8.68;5.20;;;16.20;72.50;;;;;;4189163;28;20055;-48
2023/12/07 02:08:42;;;;;;;5.53;4.85;;;16.20;72.70;;;;;;4187193;28;20369;-47
2023/12/07 02:11:23;;;;;;;6.18;5.68;;;16.20;72.70;;;;;;4187803;28;20079;-46
2023/12/07 02:14:05;;;;;;;6.28;5.70;;;16.30;72.50;;;;;;4181537;28;20497;-47
2023/12/07 02:16:51;;;;;;;7.03;4.70;;;16.30;72.20;;;;;;4187954;28;20075;-46
2023/12/07 02:19:53;;;;;;;6.32;5.25;;;16.30;72.10;;;;;;4188685;28;20588;-46
2023/12/07 02:22:43;;;;;;;8.30;4.75;;;16.30;72.10;;;;;;4187952;28;20791;-46
2023/12/07 02:25:30;;;;;;;9.50;5.57;;;16.40;72.10;;;;;;4186973;28;20051;-50
2023/12/07 02:28:12;;;;;;;5.10;4.60;;;16.50;71.80;;;;;;4182233;28;20056;-51
2023/12/07 02:30:53;;;;;;;5.50;5.00;;;16.40;71.60;;;;;;4188046;28;20051;-51
2023/12/07 02:33:34;;;;;;;5.78;4.78;;;16.40;72.40;;;;;;4190739;28;20751;-52
2023/12/07 02:36:18;;;;;;;5.65;5.10;;;16.30;71.60;;;;;;4188417;28;20055;-51
2023/12/07 02:39:03;;;;;;;5.95;4.97;;;16.40;72.10;;;;;;4188219;28;20411;-50
2023/12/07 02:41:47;;;;;;;5.15;4.65;;;16.30;72.10;;;;;;4186793;28;20182;-50
2023/12/07 02:44:30;;;;;;;4.75;4.35;;;16.30;72.00;;;;;;4192730;28;20071;-50
2023/12/07 02:47:10;;;;;;;7.35;4.50;;;16.40;72.00;;;;;;4188132;28;20058;-50
2023/12/07 02:49:51;;;;;;;5.35;4.75;;;16.40;72.10;;;;;;4175533;28;20095;-50
2023/12/07 02:52:33;;;;;;;5.93;5.38;;;16.40;72.10;;;;;;4179981;28;20154;-49
2023/12/07 02:55:14;;;;;;;5.05;4.65;;;16.40;71.80;;;;;;4158655;28;20405;-51
2023/12/07 02:57:55;;;;;;;5.10;4.68;;;16.40;71.90;;;;;;4156203;28;20192;-53
2023/12/07 03:00:37;;;;;;;7.35;6.05;;;16.40;71.90;;;;;;4171323;28;20059;-49
2023/12/07 03:03:18;;;;;;;5.18;4.70;;;16.40;71.80;;;;;;4177480;28;20052;-50
2023/12/07 03:05:59;;;;;;;4.95;4.45;;;16.40;71.70;;;;;;4186516;28;20079;-50
2023/12/07 03:08:40;;;;;;;6.90;4.32;;;16.40;71.90;;;;;;4187988;28;20180;-49
2023/12/07 03:11:22;;;;;;;7.43;4.20;;;16.40;71.90;;;;;;4181088;28;20064;-50
2023/12/07 03:14:03;;;;;;;4.72;4.43;;;16.40;71.60;;;;;;4179917;28;20060;-49
2023/12/07 03:16:46;;;;;;;5.10;4.65;;;16.50;71.40;;;;;;4186082;28;20178;-49
2023/12/07 03:19:26;;;;;;;4.57;4.15;;;16.50;71.40;;;;;;4186248;28;20043;-50
2023/12/07 03:22:08;;;;;;;5.10;4.60;;;16.40;71.50;;;;;;4183585;28;20052;-53
2023/12/07 03:24:52;;;;;;;5.78;4.32;;;16.40;71.60;;;;;;4186900;28;20097;-50
2023/12/07 03:27:33;;;;;;;5.43;4.38;;;16.30;71.40;;;;;;4187813;28;20052;-51
2023/12/07 03:30:14;;;;;;;5.38;4.78;;;16.30;71.70;;;;;;4187476;28;20498;-50
2023/12/07 03:32:57;;;;;;;5.47;4.50;;;16.20;72.00;;;;;;4187382;28;20051;-53
2023/12/07 03:35:38;;;;;;;5.13;4.20;;;16.20;72.50;;;;;;4170697;28;20068;-52
2023/12/07 03:38:19;;;;;;;8.85;4.80;;;16.00;72.60;;;;;;4171255;28;20087;-51
2023/12/07 03:41:00;;;;;;;9.65;4.72;;;16.00;73.00;;;;;;4183300;28;20071;-53
2023/12/07 03:43:41;;;;;;;5.43;4.63;;;15.90;73.30;;;;;;4177435;28;20411;-49
2023/12/07 03:46:22;;;;;;;5.55;5.10;;;15.70;73.60;;;;;;4171143;28;20068;-50
2023/12/07 03:49:04;;;;;;;5.28;4.78;;;15.70;74.00;;;;;;4170572;28;20047;-50
2023/12/07 03:51:45;;;;;;;4.70;4.13;;;15.60;74.30;;;;;;4172597;28;20519;-51
2023/12/07 03:54:27;;;;;;;;;;;15.50;74.60;;;;;;4187764;28;20533;-54
2023/12/07 03:57:08;;;;;;;5.55;4.65;;;15.40;74.90;;;;;;4187355;28;20065;-52
2023/12/07 03:59:48;;;;;;;5.07;4.57;;;15.30;75.70;;;;;;4171565;28;20072;-52
2023/12/07 04:02:32;;;;;;;6.00;5.40;;;15.30;76.00;;;;;;4181315;28;20043;-53
2023/12/07 04:05:15;;;;;;;4.85;4.45;;;15.30;76.20;;;;;;4170764;28;20412;-51
2023/12/07 04:07:56;;;;;;;5.25;4.63;;;15.50;76.00;;;;;;4184811;28;20190;-50
2023/12/07 04:10:37;;;;;;;4.22;3.92;;;15.60;75.50;;;;;;4187103;28;20137;-51
2023/12/07 04:13:18;;;;;;;5.68;4.25;;;15.80;75.00;;;;;;4169373;28;20095;-51
2023/12/07 04:15:59;;;;;;;6.78;4.60;;;15.90;74.20;;;;;;4187166;28;20109;-50
2023/12/07 04:18:40;;;;;;;4.40;4.00;;;16.00;73.60;;;;;;4170665;28;20048;-54
2023/12/07 04:21:23;;;;;;;5.20;4.38;;;16.10;73.50;;;;;;4170692;28;20527;-53
2023/12/07 04:24:03;;;;;;;3.92;3.72;;;16.20;73.00;;;;;;4179938;28;20043;-52
2023/12/07 04:26:44;;;;;;;4.65;3.92;;;16.20;72.70;;;;;;4186501;28;20055;-51
2023/12/07 04:29:26;;;;;;;4.72;4.25;;;16.30;72.50;;;;;;4169435;28;20068;-54
2023/12/07 04:32:08;;;;;;;4.67;4.27;;;16.30;72.50;;;;;;4191447;28;20161;-52
2023/12/07 04:34:49;;;;;;;4.60;3.90;;;16.30;72.50;;;;;;4185044;28;20145;-52
2023/12/07 04:37:31;;;;;;;5.43;4.50;;;16.30;72.20;;;;;;4194693;28;20133;-51
2023/12/07 04:40:13;;;;;;;4.65;3.70;;;16.40;72.00;;;;;;4203291;28;20089;-47
2023/12/07 04:42:54;;;;;;;7.03;4.13;;;16.40;71.80;;;;;;4200843;28;20051;-49
2023/12/07 04:45:35;;;;;;;5.75;4.43;;;16.30;71.70;;;;;;4187240;28;20395;-49
2023/12/07 04:48:16;;;;;;;3.90;3.45;;;16.30;71.80;;;;;;4187982;28;20090;-49
2023/12/07 04:50:57;;;;;;;4.30;3.75;;;16.30;72.10;;;;;;4189713;28;20047;-51
2023/12/07 04:53:40;;;;;;;5.60;4.35;;;16.30;72.30;;;;;;4181533;28;20486;-50
2023/12/07 04:56:21;;;;;;;4.35;3.95;;;16.20;72.30;;;;;;4189872;28;20186;-51
2023/12/07 04:59:02;;;;;;;4.20;3.72;;;16.20;72.30;;;;;;4188486;28;20069;-48
2023/12/07 05:01:43;;;;;;;3.72;3.42;;;16.20;72.50;;;;;;4190331;28;20059;-50
2023/12/07 05:04:24;;;;;;;4.55;4.15;;;16.20;72.70;;;;;;4157755;28;20057;-49
2023/12/07 05:07:06;;;;;;;5.22;3.80;;;16.20;72.60;;;;;;4172055;28;20183;-49
2023/12/07 05:09:48;;;;;;;4.25;3.85;;;16.20;72.50;;;;;;4173360;28;20048;-48
2023/12/07 05:12:29;;;;;;;5.18;3.95;;;16.20;72.50;;;;;;4180186;28;20055;-47
2023/12/07 05:15:10;;;;;;;5.15;4.07;;;16.20;72.50;;;;;;4188919;28;20052;-49
2023/12/07 05:17:51;;;;;;;4.60;4.20;;;16.20;72.60;;;;;;4184300;28;20059;-48
2023/12/07 05:20:32;;;;;;;3.95;3.65;;;16.30;72.30;;;;;;4184704;28;20060;-49
2023/12/07 05:23:13;;;;;;;4.10;3.80;;;16.30;72.10;;;;;;4164227;28;20081;-47
2023/12/07 05:25:55;;;;;;;4.43;4.13;;;16.30;72.80;;;;;;4189079;28;20102;-49
2023/12/07 05:28:38;;;;;;;4.05;3.75;;;16.40;71.80;;;;;;4187943;28;20093;-47
2023/12/07 05:31:19;;;;;;;4.25;3.95;;;16.40;71.40;;;;;;4193086;28;20559;-48
2023/12/07 05:34:00;;;;;;;4.38;3.97;;;16.40;71.30;;;;;;4206340;28;20055;-48
2023/12/07 05:36:41;;;;;;;8.50;4.75;;;16.40;71.40;;;;;;4205602;28;20055;-49
2023/12/07 05:39:22;;;;;;;5.28;4.00;;;16.30;71.70;;;;;;4189063;28;20051;-49
2023/12/07 05:42:06;;;;;;;4.85;4.43;;;16.20;71.90;;;;;;4198640;28;20062;-50
2023/12/07 05:44:47;;;;;;;4.40;4.00;;;16.10;72.20;;;;;;4205890;28;20605;-49
2023/12/07 05:47:28;;;;;;;4.90;4.28;;;16.10;72.80;;;;;;4196730;28;20055;-48
2023/12/07 05:50:09;;;;;;;;;;;16.10;73.00;;;;;;4189396;28;20043;-48
2023/12/07 05:52:50;;;;;;;4.87;4.50;;;16.20;73.70;;;;;;4159716;28;19943;-49
2023/12/07 05:55:31;;;;;;;4.95;4.40;;;16.30;72.30;;;;;;4157086;28;20052;-48
2023/12/07 05:58:14;;;;;;;4.35;3.95;;;16.40;71.80;;;;;;4171943;28;20551;-50
2023/12/07 06:00:55;;;;;;;4.88;4.53;;;16.40;71.30;;;;;;4183196;28;20136;-49
2023/12/07 06:03:36;;;;;;;5.72;4.80;;;16.50;71.40;;;;;;4205843;28;20046;-48
2023/12/07 06:06:18;;;;;;;6.05;4.90;;;16.50;71.40;;;;;;4192976;28;20830;-48
2023/12/07 06:08:59;;;;;;;5.28;4.68;;;16.60;71.20;;;;;;4172892;28;20060;-47
2023/12/07 06:11:40;;;;;;;5.68;5.25;;;16.60;70.90;;;;;;4188159;28;20545;-48
2023/12/07 06:14:23;;;;;;;5.63;5.13;;;16.60;70.50;;;;;;4188759;28;20064;-49
2023/12/07 06:17:04;;;;;;;5.88;5.25;;;16.60;69.40;;;;;;4172523;28;20060;-50
2023/12/07 06:19:45;;;;;;;5.88;5.38;;;16.70;70.00;;;;;;4177094;28;20060;-48
2023/12/07 06:22:26;;;;;;;5.93;5.43;;;16.60;70.50;;;;;;4158250;28;20405;-48
2023/12/07 06:25:08;;;;;;;5.45;4.97;;;16.70;70.40;;;;;;4163627;28;20510;-48
2023/12/07 06:27:50;;;;;;;6.03;5.38;;;16.80;70.20;;;;;;4188367;28;20047;-52
2023/12/07 06:30:32;;;;;;;5.95;5.45;;;16.70;69.80;;;;;;4189562;28;20056;-51
2023/12/07 06:33:14;;;;;;;7.15;5.63;;;16.70;70.10;;;;;;4204994;28;20066;-55
2023/12/07 06:35:55;;;;;;;6.50;5.90;;;16.70;70.60;;;;;;4192100;28;20054;-47
2023/12/07 06:38:36;;;;;;;6.28;5.65;;;16.80;70.80;;;;;;4188469;28;20071;-48
2023/12/07 06:41:17;;;;;;;7.03;6.38;;;16.80;70.60;;;;;;4188365;28;20059;-49
2023/12/07 06:43:58;;;;;;;6.05;5.38;;;16.80;70.30;;;;;;4188338;28;20052;-48
2023/12/07 06:46:41;;;;;;;6.38;5.80;;;16.80;70.40;;;;;;4192216;28;20552;-47
2023/12/07 06:49:22;;;;;;;7.13;5.70;;;16.70;70.30;;;;;;4188029;28;20063;-49
2023/12/07 06:52:06;;;;;;;6.38;5.78;;;16.60;70.50;;;;;;4187598;28;20071;-49
2023/12/07 06:54:47;;;;;;;7.03;5.65;;;16.60;70.70;;;;;;4187602;28;20055;-47
2023/12/07 06:57:28;;;;;;;6.10;5.60;;;16.40;71.00;;;;;;4187559;28;20602;-48
2023/12/07 07:00:11;;;;;;;5.63;5.13;;;16.40;71.30;;;;;;4186482;28;20059;-48
2023/12/07 07:02:53;;;;;;;6.75;5.78;;;16.30;72.00;;;;;;4176123;28;20063;-47
2023/12/07 07:05:34;;;;;;;5.68;5.03;;;16.40;72.30;;;;;;4184021;28;20093;-53
2023/12/07 07:08:15;;;;;;;6.55;5.35;;;16.40;72.10;;;;;;4187489;28;20059;-51
2023/12/07 07:10:57;;;;;;;7.22;5.68;;;16.50;71.70;;;;;;4198080;28;20060;-48
2023/12/07 07:13:38;;;;;;;6.07;5.47;;;16.60;71.40;;;;;;4169720;28;20102;-48
2023/12/07 07:16:19;;;;;;;6.15;5.65;;;16.60;71.10;;;;;;4185302;28;20052;-50
2023/12/07 07:19:01;;;;;;;6.53;5.93;;;16.60;71.20;;;;;;4186593;28;20123;-48
2023/12/07 07:21:42;;;;;;;7.32;5.53;;;16.70;71.00;;;;;;4189729;28;20059;-50
2023/12/07 07:24:23;;;;;;;6.70;5.95;;;16.70;70.70;;;;;;4191095;28;20597;-50
2023/12/07 07:27:05;;;;;;;6.05;5.45;;;16.70;70.70;;;;;;4187578;28;20060;-51
2023/12/07 07:29:46;;;;;;;6.30;5.70;;;16.70;70.70;;;;;;4192601;28;20074;-48
2023/12/07 07:32:27;;;;;;;7.05;6.35;;;16.70;70.40;;;;;;4203203;28;20489;-50
2023/12/07 07:35:11;;;;;;;6.85;6.13;;;16.70;70.10;;;;;;4155796;28;20060;-48
2023/12/07 07:37:53;;;;;;;7.53;6.60;;;16.70;70.30;;;;;;4155955;28;20048;-49
2023/12/07 07:40:35;;;;;;;6.20;5.60;;;16.70;70.20;;;;;;4173945;28;20048;-49
2023/12/07 07:43:16;;;;;;;6.25;5.75;;;16.70;70.00;;;;;;4188811;28;20527;-50
2023/12/07 07:45:58;;;;;;;7.47;5.93;;;16.70;69.90;;;;;;4194780;28;20056;-49
2023/12/07 07:48:39;;;;;;;8.20;6.60;;;16.70;70.10;;;;;;4185146;28;20068;-46
2023/12/07 07:51:21;;;;;;;7.22;6.30;;;16.70;70.30;;;;;;4178290;28;20059;-52
2023/12/07 07:54:02;;;;;;;8.30;6.20;;;16.70;70.10;;;;;;4181842;28;20683;-50
2023/12/07 07:56:44;;;;;;;6.65;5.97;;;16.70;70.00;;;;;;4173869;28;20068;-51
2023/12/07 07:59:25;;;;;;;8.77;6.47;;;16.70;70.10;;;;;;4189946;28;20047;-50
2023/12/07 08:02:06;;;;;;;;;;;16.70;70.90;;;;;;4202355;28;20047;-50
2023/12/07 08:04:47;;;;;;;7.57;6.40;;;16.70;70.00;;;;;;4181044;28;19989;-47
2023/12/07 08:07:30;;;;;;;7.00;6.30;;;16.70;70.00;;;;;;4175185;28;20697;-48
2023/12/07 08:10:11;;;;;;;8.88;7.97;;;16.70;70.20;;;;;;4198160;28;20047;-51
2023/12/07 08:12:52;;;;;;;10.10;6.50;;;16.70;70.50;;;;;;4203131;28;20048;-52
2023/12/07 08:15:33;;;;;;;9.90;6.80;;;16.70;70.70;;;;;;4192379;28;20055;-50
2023/12/07 08:18:14;;;;;;;7.28;6.57;;;16.70;71.30;;;;;;4173109;28;20087;-51
2023/12/07 08:20:55;;;;;;;;;;;16.70;70.70;;;;;;4169856;28;20052;-51
2023/12/07 08:23:38;;;;;;;9.55;6.88;;;16.60;71.10;;;;;;4186222;28;20290;-48
2023/12/07 08:26:19;;;;;;;7.93;6.95;;;16.70;71.20;;;;;;4188282;28;20105;-50
2023/12/07 08:28:59;;;;;;;7.70;6.63;;;16.60;70.80;;;;;;4179406;28;20048;-51
2023/12/07 08:31:41;;;;;;;8.07;7.10;;;16.60;70.70;;;;;;4185791;28;20142;-48
2023/12/07 08:34:22;;;;;;;;;;;16.70;70.70;;;;;;4171608;28;20102;-50
2023/12/07 08:37:04;;;;;;;9.65;6.22;;;16.70;70.60;;;;;;4172396;28;19928;-49
2023/12/07 08:39:46;;;;;;;10.00;7.15;;;16.80;70.50;;;;;;4173398;28;20118;-49
2023/12/07 08:42:28;;;;;;;8.02;6.43;;;16.80;70.20;;;;;;4178756;28;20055;-49
2023/12/07 08:45:10;;;;;;;7.55;6.15;;;16.80;70.00;;;;;;4189573;28;20087;-47
2023/12/07 08:47:51;;;;;;;6.68;6.05;;;16.70;70.10;;;;;;4189189;28;20059;-49
2023/12/07 08:50:32;;;;;;;9.60;6.82;;;16.70;70.00;;;;;;4189813;28;20059;-48
2023/12/07 08:53:13;;;;;;;10.95;7.80;;;16.70;70.10;;;;;;4189246;28;20647;-47
2023/12/07 08:55:55;;;;;;;9.80;8.40;;;16.70;70.20;;;;;;4172926;28;20510;-48
2023/12/07 08:58:37;;;;;;;11.07;8.73;;;16.70;70.30;;;;;;4178520;28;20064;-49
2023/12/07 09:01:18;;;;;;;9.73;8.38;;;16.70;70.40;;;;;;4187654;28;20092;-49
2023/12/07 09:04:05;;;;;;;11.57;8.73;;;16.60;70.40;;;;;;4171562;28;20830;-53
2023/12/07 09:06:46;;;;;;;13.95;8.40;;;16.50;70.50;;;;;;4162108;28;20615;-49
2023/12/07 09:09:27;;;;;;;10.80;8.65;;;16.50;70.70;;;;;;4173149;28;20392;-48
2023/12/07 09:12:11;;;;;;;8.60;7.57;;;16.50;70.80;;;;;;4178563;28;20051;-49
2023/12/07 09:14:52;;;;;;;10.00;7.97;;;16.40;70.80;;;;;;4187278;28;20055;-47
2023/12/07 09:17:33;;;;;;;10.48;8.38;;;16.30;71.00;;;;;;4173305;28;20455;-47
2023/12/07 09:20:15;;;;;;;10.05;8.35;;;16.30;71.30;;;;;;4173049;28;20064;-47
2023/12/07 09:22:57;;;;;;;12.25;7.78;;;16.30;72.30;;;;;;4172869;28;20072;-48
2023/12/07 09:25:38;;;;;;;14.50;8.80;;;16.40;71.60;;;;;;4172436;28;20060;-47
2023/12/07 09:28:21;;;;;;;14.57;9.65;;;16.50;71.10;;;;;;4171868;28;20055;-47
2023/12/07 09:31:02;;;;;;;9.25;8.30;;;16.50;70.70;;;;;;4189124;28;20055;-48
2023/12/07 09:33:43;;;;;;;9.45;8.45;;;16.60;70.40;;;;;;4172720;28;20044;-47
2023/12/07 09:36:26;;;;;;;11.60;9.35;;;16.60;70.30;;;;;;4187447;28;20182;-49
2023/12/07 09:39:09;;;;;;;10.80;9.38;;;16.70;70.10;;;;;;4179506;28;20179;-47
2023/12/07 09:41:51;;;;;;;12.45;9.63;;;16.80;69.70;;;;;;4175750;28;20060;-49
2023/12/07 09:44:33;;;;;;;12.88;9.02;;;16.80;69.50;;;;;;4189132;28;20059;-47
2023/12/07 09:47:15;;;;;;;14.55;9.50;;;16.80;69.40;;;;;;4188862;28;20194;-47
2023/12/07 09:50:02;;;;;;;13.35;10.68;;;16.80;69.50;;;;;;4189046;28;20052;-49
2023/12/07 09:52:43;;;;;;;16.05;11.18;;;16.70;69.50;;;;;;4188984;28;20060;-50
2023/12/07 09:55:27;;;;;;;15.48;11.25;;;16.70;69.60;;;;;;4188379;28;20060;-52
2023/12/07 09:58:08;;;;;;;12.88;11.48;;;16.70;69.70;;;;;;4182088;28;20055;-51
2023/12/07 10:00:51;;;;;;;;;;;16.60;70.00;;;;;;4189511;28;20044;-51
2023/12/07 10:03:32;;;;;;;22.92;10.63;;;16.60;70.30;;;;;;4188875;28;20394;-50
2023/12/07 10:06:13;;;;;;;11.63;10.38;;;16.50;70.60;;;;;;4188994;28;20067;-53
2023/12/07 10:09:04;;;;;;;13.90;10.20;;;16.50;70.70;;;;;;4187105;28;20841;-51
2023/12/07 10:11:49;;;;;;;15.15;11.57;;;16.40;70.70;;;;;;4171927;28;20087;-53
2023/12/07 10:14:30;;;;;;;;;;;16.30;71.00;;;;;;4182854;28;20411;-50
2023/12/07 10:17:12;;;;;;;16.88;11.30;;;16.20;71.30;;;;;;4176131;28;19974;-54
2023/12/07 10:20:09;;;;;;;13.50;10.80;;;16.30;71.90;;;;;;4187211;28;20127;-50
2023/12/07 10:23:01;;;;;;;12.52;10.57;;;16.40;72.10;;;;;;4173861;28;20060;-53
2023/12/07 10:25:42;;;;;;;;;;;16.50;71.20;;;;;;4188727;28;20102;-52
2023/12/07 10:28:23;;;;;;;10.93;9.60;;;16.60;70.90;;;;;;4187245;28;19932;-50
2023/12/07 10:31:09;;;;;;;13.23;10.07;;;16.60;70.60;;;;;;4187807;28;20048;-53
2023/12/07 10:33:51;;;;;;;12.77;10.27;;;16.70;70.30;;;;;;4186874;28;20460;-53
2023/12/07 10:36:33;;;;;;;11.55;10.30;;;16.70;70.00;;;;;;4171951;28;20055;-51
2023/12/07 10:39:14;;;;;;;11.25;9.77;;;16.70;69.80;;;;;;4170273;28;20574;-58
2023/12/07 10:42:05;;;;;;;11.88;10.10;;;16.70;69.80;;;;;;4170719;28;20191;-52
2023/12/07 10:44:51;;;;;;;11.55;9.93;;;16.60;69.70;;;;;;4169901;28;20051;-50
2023/12/07 10:47:36;;;;;;;11.45;9.63;;;16.70;69.90;;;;;;4169367;28;20056;-51
2023/12/07 10:50:23;;;;;;;14.73;9.98;;;16.70;69.80;;;;;;4188307;28;20487;-53
2023/12/07 10:53:10;;;;;;;14.23;9.75;;;16.70;69.50;;;;;;4188250;28;20044;-50
2023/12/07 10:55:56;;;;;;;11.13;9.52;;;16.60;69.40;;;;;;4187872;28;20063;-49
2023/12/07 10:58:39;;;;;;;11.80;8.65;;;16.60;69.50;;;;;;4168320;28;20091;-47
2023/12/07 11:01:22;;;;;;;11.65;9.38;;;16.50;69.70;;;;;;4171670;28;20063;-46
2023/12/07 11:04:03;;;;;;;10.63;9.52;;;16.40;70.00;;;;;;4171333;28;20175;-49
2023/12/07 11:06:51;;;;;;;13.88;9.95;;;16.40;70.40;;;;;;4172726;28;20047;-46
2023/12/07 11:09:39;;;;;;;11.23;9.40;;;16.40;70.60;;;;;;4186971;28;20059;-51
2023/12/07 11:12:30;;;;;;;11.38;10.15;;;16.50;70.60;;;;;;4187358;28;20510;-48
2023/12/07 11:15:11;;;;;;;13.77;9.93;;;16.60;70.20;;;;;;4170489;28;20136;-51
2023/12/07 11:17:53;;;;;;;12.77;9.38;;;16.70;70.10;;;;;;4183322;28;20103;-46
2023/12/07 11:20:42;;;;;;;14.07;9.52;;;16.70;69.80;;;;;;4187596;28;20074;-50
2023/12/07 11:23:25;;;;;;;11.30;8.85;;;16.80;69.40;;;;;;4187128;28;20063;-50
2023/12/07 11:26:06;;;;;;;14.73;9.75;;;16.90;69.30;;;;;;4186529;28;20059;-50
2023/12/07 11:28:47;;;;;;;13.90;9.98;;;16.90;69.30;;;;;;4168699;28;20059;-49
2023/12/07 11:31:28;;;;;;;12.73;9.38;;;16.90;69.40;;;;;;4167049;28;20060;-50
2023/12/07 11:34:13;;;;;;;10.85;9.32;;;17.00;69.30;;;;;;4169275;28;20055;-49
2023/12/07 11:36:54;;;;;;;11.38;10.00;;;17.10;69.00;;;;;;4170794;28;20111;-46
2023/12/07 11:39:37;;;;;;;;;;;17.00;68.70;;;;;;4185357;28;20059;-48
2023/12/07 11:42:20;;;;;;;11.57;9.10;;;17.10;69.00;;;;;;4203951;28;20033;-49
2023/12/07 11:45:03;;;;;;;11.75;10.25;;;17.10;69.10;;;;;;4204094;28;20059;-48
2023/12/07 11:47:48;;;;;;;14.70;9.93;;;17.10;69.10;;;;;;4187800;28;20047;-51
2023/12/07 11:50:29;;;;;;;11.90;9.40;;;17.20;69.00;;;;;;4196906;28;20055;-49
2023/12/07 11:53:11;;;;;;;13.80;9.95;;;17.20;68.70;;;;;;4192789;28;20052;-46
2023/12/07 11:55:53;;;;;;;9.65;8.75;;;17.20;69.50;;;;;;4184930;28;20056;-49
2023/12/07 11:58:36;;;;;;;14.15;9.80;;;17.10;68.80;;;;;;4168645;28;20097;-51
2023/12/07 12:01:20;;;;;;;10.40;9.30;;;17.10;69.30;;;;;;4170294;28;20063;-48
2023/12/07 12:04:04;;;;;;;11.07;9.25;;;17.10;69.50;;;;;;4170401;28;20190;-47
2023/12/07 12:06:45;;;;;;;10.32;8.75;;;17.00;69.50;;;;;;4181032;28;20048;-50
2023/12/07 12:09:26;;;;;;;10.80;9.15;;;17.00;69.70;;;;;;4174664;28;20090;-49
2023/12/07 12:12:15;;;;;;;9.85;8.85;;;17.00;69.80;;;;;;4185443;28;20186;-50
2023/12/07 12:14:56;;;;;;;9.27;8.32;;;16.90;69.90;;;;;;4187177;28;20070;-49
2023/12/07 12:17:38;;;;;;;10.10;8.93;;;16.80;70.20;;;;;;4185705;28;20124;-52
2023/12/07 12:20:19;;;;;;;12.32;10.05;;;16.80;70.50;;;;;;4171805;28;20059;-47
2023/12/07 12:23:01;;;;;;;12.32;10.60;;;16.80;70.50;;;;;;4181939;28;20055;-46
2023/12/07 12:25:42;;;;;;;14.00;11.23;;;16.70;70.70;;;;;;4186616;28;20534;-46
2023/12/07 12:28:25;;;;;;;12.32;11.02;;;16.70;70.90;;;;;;4177983;28;20098;-46
2023/12/07 12:31:06;;;;;;;14.25;11.38;;;16.60;70.70;;;;;;4182950;28;20063;-47
2023/12/07 12:33:49;;;;;;;13.55;11.15;;;16.60;70.80;;;;;;4183936;28;20155;-46
2023/12/07 12:36:30;;;;;;;12.70;10.15;;;16.50;70.90;;;;;;4183135;28;20110;-47
2023/12/07 12:39:11;;;;;;;10.80;9.70;;;16.50;71.20;;;;;;4185108;28;20091;-48
2023/12/07 12:42:04;;;;;;;12.10;10.27;;;16.40;71.40;;;;;;4186762;28;20526;-46
2023/12/07 12:44:47;;;;;;;11.40;9.48;;;16.40;71.40;;;;;;4187243;28;20298;-46
2023/12/07 12:47:28;;;;;;;10.85;9.20;;;16.40;71.30;;;;;;4186500;28;20165;-48
2023/12/07 12:50:10;;;;;;;11.68;9.45;;;16.40;71.30;;;;;;4186756;28;20097;-47
2023/12/07 12:52:51;;;;;;;11.18;9.15;;;16.50;71.20;;;;;;4174397;28;20498;-46
2023/12/07 12:55:33;;;;;;;12.13;9.95;;;16.50;70.70;;;;;;4184694;28;20075;-46
2023/12/07 12:58:17;;;;;;;13.77;10.00;;;16.60;70.40;;;;;;4186883;28;20483;-53
2023/12/07 13:01:02;;;;;;;12.05;10.40;;;16.60;70.20;;;;;;4186510;28;20067;-50
2023/12/07 13:03:45;;;;;;;11.95;10.43;;;16.60;70.20;;;;;;4186798;28;20126;-51
2023/12/07 13:06:26;;;;;;;12.88;10.23;;;16.60;70.20;;;;;;4184815;28;20079;-52
2023/12/07 13:09:07;;;;;;;14.13;11.10;;;16.60;70.10;;;;;;4187699;28;20111;-50
2023/12/07 13:11:48;;;;;;;18.27;12.00;;;16.50;70.00;;;;;;4189444;28;20048;-53
2023/12/07 13:14:29;;;;;;;15.88;12.75;;;16.50;70.10;;;;;;4172323;28;20047;-53
2023/12/07 13:17:13;;;;;;;17.88;12.23;;;16.50;70.30;;;;;;4172908;28;20388;-53
2023/12/07 13:19:55;;;;;;;17.15;11.75;;;16.50;70.30;;;;;;4189724;28;20145;-53
2023/12/07 13:22:36;;;;;;;14.15;11.15;;;16.40;70.30;;;;;;4157589;28;20076;-53
2023/12/07 13:25:17;;;;;;;15.10;12.23;;;16.40;70.60;;;;;;4167933;28;20053;-50
2023/12/07 13:27:58;;;;;;;14.38;11.93;;;16.30;70.60;;;;;;4161850;28;20110;-52
2023/12/07 13:30:39;;;;;;;13.77;10.88;;;16.30;70.80;;;;;;4171513;28;20056;-52
2023/12/07 13:33:23;;;;;;;13.93;10.10;;;16.30;71.10;;;;;;4176847;28;20056;-50
2023/12/07 13:36:07;;;;;;;13.23;10.90;;;16.30;71.20;;;;;;4173139;28;20491;-51
2023/12/07 13:38:49;;;;;;;13.02;11.13;;;16.30;71.10;;;;;;4177410;28;20122;-49
2023/12/07 13:41:30;;;;;;;13.68;11.45;;;16.30;70.90;;;;;;4173956;28;20047;-50
2023/12/07 13:44:11;;;;;;;14.68;11.88;;;16.30;71.00;;;;;;4186137;28;20403;-47
2023/12/07 13:46:54;;;;;;;15.55;11.68;;;16.30;71.10;;;;;;4184098;28;20101;-48
2023/12/07 13:49:38;;;;;;;15.73;11.25;;;16.40;70.80;;;;;;4189205;28;20063;-48
2023/12/07 13:52:19;;;;;;;15.52;12.10;;;16.40;70.50;;;;;;4188570;28;20056;-48
2023/12/07 13:55:01;;;;;;;17.70;11.93;;;16.50;70.30;;;;;;4188892;28;20408;-50
2023/12/07 13:57:43;;;;;;;14.48;11.05;;;16.60;70.60;;;;;;4189264;28;20052;-53
2023/12/07 14:00:24;;;;;;;17.45;11.95;;;16.60;69.80;;;;;;4185538;28;20055;-50
2023/12/07 14:03:05;;;;;;;19.60;14.20;;;16.60;69.60;;;;;;4189383;28;20064;-50